sensor_id;sensor_type;location;lat;lon;timestamp;pressure;altitude;pressure_sealevel;temperature;humidity
72110;BME280;59983;52.010;5.420;2023-04-03T00:00:59;103076.47;;;6.12;69.81
72110;BME280;59983;52.010;5.420;2023-04-03T00:03:25;103082.59;;;6.03;69.40
72110;BME280;59983;52.010;5.420;2023-04-03T00:05:52;103080.41;;;6.00;70.04
72110;BME280;59983;52.010;5.420;2023-04-03T00:08:19;103089.00;;;5.96;70.20
72110;BME280;59983;52.010;5.420;2023-04-03T00:10:45;103092.25;;;5.99;70.17
72110;BME280;59983;52.010;5.420;2023-04-03T00:13:12;103092.53;;;5.97;70.37
72110;BME280;59983;52.010;5.420;2023-04-03T00:15:40;103087.56;;;5.84;70.81
72110;BME280;59983;52.010;5.420;2023-04-03T00:18:07;103085.66;;;5.84;70.15
72110;BME280;59983;52.010;5.420;2023-04-03T00:20:34;103091.81;;;5.80;70.63
72110;BME280;59983;52.010;5.420;2023-04-03T00:23:01;103086.13;;;5.76;71.21
72110;BME280;59983;52.010;5.420;2023-04-03T00:25:28;103089.66;;;5.77;70.71
72110;BME280;59983;52.010;5.420;2023-04-03T00:27:55;103087.75;;;5.77;70.65
72110;BME280;59983;52.010;5.420;2023-04-03T00:30:22;103089.31;;;5.68;70.93
72110;BME280;59983;52.010;5.420;2023-04-03T00:32:49;103097.59;;;5.61;70.80
72110;BME280;59983;52.010;5.420;2023-04-03T00:35:17;103096.22;;;5.59;71.18
72110;BME280;59983;52.010;5.420;2023-04-03T00:37:44;103096.69;;;5.51;71.53
72110;BME280;59983;52.010;5.420;2023-04-03T00:40:12;103099.97;;;5.58;70.85
72110;BME280;59983;52.010;5.420;2023-04-03T00:42:43;103098.38;;;5.57;71.41
72110;BME280;59983;52.010;5.420;2023-04-03T00:45:25;103096.72;;;5.56;71.67
72110;BME280;59983;52.010;5.420;2023-04-03T00:47:52;103097.78;;;5.55;71.59
72110;BME280;59983;52.010;5.420;2023-04-03T00:50:19;103092.03;;;5.46;71.19
72110;BME280;59983;52.010;5.420;2023-04-03T00:52:46;103097.94;;;5.43;71.36
72110;BME280;59983;52.010;5.420;2023-04-03T00:55:15;103108.78;;;5.48;71.80
72110;BME280;59983;52.010;5.420;2023-04-03T00:57:42;103106.84;;;5.44;71.55
72110;BME280;59983;52.010;5.420;2023-04-03T01:00:13;103113.91;;;5.50;71.77
72110;BME280;59983;52.010;5.420;2023-04-03T01:02:40;103108.72;;;5.43;71.57
72110;BME280;59983;52.010;5.420;2023-04-03T01:05:07;103109.72;;;5.37;71.69
72110;BME280;59983;52.010;5.420;2023-04-03T01:07:34;103117.78;;;5.37;72.27
72110;BME280;59983;52.010;5.420;2023-04-03T01:10:07;103113.19;;;5.32;72.64
72110;BME280;59983;52.010;5.420;2023-04-03T01:12:39;103110.13;;;5.24;72.28
72110;BME280;59983;52.010;5.420;2023-04-03T01:15:16;103117.13;;;5.25;72.57
72110;BME280;59983;52.010;5.420;2023-04-03T01:17:51;103108.78;;;5.21;72.43
72110;BME280;59983;52.010;5.420;2023-04-03T01:25:43;103110.44;;;5.27;72.22
72110;BME280;59983;52.010;5.420;2023-04-03T01:28:22;103114.81;;;5.33;72.93
72110;BME280;59983;52.010;5.420;2023-04-03T01:33:15;103115.19;;;5.20;72.76
72110;BME280;59983;52.010;5.420;2023-04-03T01:35:42;103113.31;;;5.21;72.58
72110;BME280;59983;52.010;5.420;2023-04-03T01:38:09;103120.47;;;5.10;72.91
72110;BME280;59983;52.010;5.420;2023-04-03T01:40:36;103112.91;;;5.07;73.33
72110;BME280;59983;52.010;5.420;2023-04-03T01:43:03;103115.59;;;5.07;73.61
72110;BME280;59983;52.010;5.420;2023-04-03T01:45:29;103111.53;;;5.04;73.47
72110;BME280;59983;52.010;5.420;2023-04-03T01:47:56;103105.38;;;5.09;73.18
72110;BME280;59983;52.010;5.420;2023-04-03T01:50:23;103111.53;;;5.04;73.66
72110;BME280;59983;52.010;5.420;2023-04-03T01:52:49;103104.56;;;5.08;73.56
72110;BME280;59983;52.010;5.420;2023-04-03T01:55:16;103115.88;;;5.10;73.45
72110;BME280;59983;52.010;5.420;2023-04-03T01:57:42;103120.63;;;5.03;73.92
72110;BME280;59983;52.010;5.420;2023-04-03T02:00:09;103113.91;;;5.01;74.07
72110;BME280;59983;52.010;5.420;2023-04-03T02:02:36;103114.72;;;5.01;74.60
72110;BME280;59983;52.010;5.420;2023-04-03T02:05:02;103119.53;;;4.99;74.32
72110;BME280;59983;52.010;5.420;2023-04-03T02:07:29;103124.03;;;4.94;73.97
72110;BME280;59983;52.010;5.420;2023-04-03T02:09:56;103124.84;;;4.94;74.59
72110;BME280;59983;52.010;5.420;2023-04-03T02:12:22;103128.38;;;4.95;74.49
72110;BME280;59983;52.010;5.420;2023-04-03T02:14:49;103132.34;;;4.92;74.17
72110;BME280;59983;52.010;5.420;2023-04-03T02:17:16;103131.72;;;4.85;74.82
72110;BME280;59983;52.010;5.420;2023-04-03T02:19:42;103128.47;;;4.83;74.87
72110;BME280;59983;52.010;5.420;2023-04-03T02:22:09;103132.53;;;4.86;74.80
72110;BME280;59983;52.010;5.420;2023-04-03T02:24:35;103138.34;;;4.77;75.42
72110;BME280;59983;52.010;5.420;2023-04-03T02:27:02;103134.91;;;4.82;75.49
72110;BME280;59983;52.010;5.420;2023-04-03T02:29:28;103149.66;;;4.79;75.10
72110;BME280;59983;52.010;5.420;2023-04-03T02:31:55;103142.66;;;4.78;75.12
72110;BME280;59983;52.010;5.420;2023-04-03T02:34:21;103146.44;;;4.77;75.79
72110;BME280;59983;52.010;5.420;2023-04-03T02:36:48;103136.22;;;4.79;76.01
72110;BME280;59983;52.010;5.420;2023-04-03T02:39:15;103139.41;;;4.76;76.25
72110;BME280;59983;52.010;5.420;2023-04-03T02:41:42;103135.09;;;4.75;76.00
72110;BME280;59983;52.010;5.420;2023-04-03T02:44:11;103137.22;;;4.73;75.54
72110;BME280;59983;52.010;5.420;2023-04-03T02:46:38;103133.16;;;4.71;76.43
72110;BME280;59983;52.010;5.420;2023-04-03T02:49:05;103142.47;;;4.85;76.58
72110;BME280;59983;52.010;5.420;2023-04-03T02:51:32;103136.88;;;4.87;76.69
72110;BME280;59983;52.010;5.420;2023-04-03T02:53:58;103144.94;;;4.87;76.06
72110;BME280;59983;52.010;5.420;2023-04-03T02:56:25;103150.31;;;4.87;76.44
72110;BME280;59983;52.010;5.420;2023-04-03T02:58:53;103145.41;;;4.83;76.98
72110;BME280;59983;52.010;5.420;2023-04-03T03:01:19;103150.53;;;4.85;76.62
72110;BME280;59983;52.010;5.420;2023-04-03T03:03:46;103148.91;;;4.84;76.87
72110;BME280;59983;52.010;5.420;2023-04-03T03:06:14;103163.75;;;4.87;77.14
72110;BME280;59983;52.010;5.420;2023-04-03T03:08:42;103150.09;;;4.71;76.96
72110;BME280;59983;52.010;5.420;2023-04-03T03:11:09;103163.38;;;4.78;76.90
72110;BME280;59983;52.010;5.420;2023-04-03T03:13:36;103169.31;;;4.80;76.82
72110;BME280;59983;52.010;5.420;2023-04-03T03:16:03;103167.72;;;4.84;77.06
72110;BME280;59983;52.010;5.420;2023-04-03T03:18:30;103162.31;;;4.79;77.23
72110;BME280;59983;52.010;5.420;2023-04-03T03:20:59;103173.06;;;4.79;77.33
72110;BME280;59983;52.010;5.420;2023-04-03T03:23:28;103170.38;;;4.79;77.24
72110;BME280;59983;52.010;5.420;2023-04-03T03:26:00;103169.22;;;4.75;76.62
72110;BME280;59983;52.010;5.420;2023-04-03T03:28:27;103172.09;;;4.68;77.50
72110;BME280;59983;52.010;5.420;2023-04-03T03:30:54;103171.22;;;4.63;77.14
72110;BME280;59983;52.010;5.420;2023-04-03T03:33:20;103175.84;;;4.67;78.26
72110;BME280;59983;52.010;5.420;2023-04-03T03:35:47;103175.53;;;4.64;78.35
72110;BME280;59983;52.010;5.420;2023-04-03T03:38:13;103177.47;;;4.68;78.25
72110;BME280;59983;52.010;5.420;2023-04-03T03:40:40;103161.84;;;4.65;78.44
72110;BME280;59983;52.010;5.420;2023-04-03T03:43:06;103176.09;;;4.66;77.77
72110;BME280;59983;52.010;5.420;2023-04-03T03:45:33;103172.75;;;4.59;77.70
72110;BME280;59983;52.010;5.420;2023-04-03T03:48:00;103176.19;;;4.54;77.82
72110;BME280;59983;52.010;5.420;2023-04-03T03:50:27;103180.19;;;4.51;78.18
72110;BME280;59983;52.010;5.420;2023-04-03T03:52:53;103184.97;;;4.49;78.36
72110;BME280;59983;52.010;5.420;2023-04-03T03:55:20;103187.09;;;4.47;77.87
72110;BME280;59983;52.010;5.420;2023-04-03T03:57:46;103183.28;;;4.43;77.98
72110;BME280;59983;52.010;5.420;2023-04-03T04:00:13;103178.97;;;4.42;77.88
72110;BME280;59983;52.010;5.420;2023-04-03T04:02:39;103182.94;;;4.40;78.30
72110;BME280;59983;52.010;5.420;2023-04-03T04:05:06;103183.13;;;4.33;78.47
72110;BME280;59983;52.010;5.420;2023-04-03T04:07:33;103182.78;;;4.30;78.62
72110;BME280;59983;52.010;5.420;2023-04-03T04:09:59;103182.78;;;4.30;78.45
72110;BME280;59983;52.010;5.420;2023-04-03T04:12:26;103182.22;;;4.28;78.66
72110;BME280;59983;52.010;5.420;2023-04-03T04:14:52;103185.16;;;4.26;78.70
72110;BME280;59983;52.010;5.420;2023-04-03T04:17:19;103185.16;;;4.26;78.96
72110;BME280;59983;52.010;5.420;2023-04-03T04:19:46;103189.78;;;4.31;78.42
72110;BME280;59983;52.010;5.420;2023-04-03T04:22:12;103178.72;;;4.27;78.84
72110;BME280;59983;52.010;5.420;2023-04-03T04:24:38;103191.25;;;4.21;78.96
72110;BME280;59983;52.010;5.420;2023-04-03T04:27:05;103188.97;;;4.13;79.36
72110;BME280;59983;52.010;5.420;2023-04-03T04:29:31;103194.09;;;4.15;78.89
72110;BME280;59983;52.010;5.420;2023-04-03T04:32:03;103187.84;;;4.09;79.45
72110;BME280;59983;52.010;5.420;2023-04-03T04:34:30;103199.06;;;4.06;79.45
72110;BME280;59983;52.010;5.420;2023-04-03T04:36:56;103190.69;;;4.03;79.75
72110;BME280;59983;52.010;5.420;2023-04-03T04:39:23;103200.09;;;4.05;79.55
72110;BME280;59983;52.010;5.420;2023-04-03T04:41:49;103199.78;;;4.02;79.97
72110;BME280;59983;52.010;5.420;2023-04-03T04:44:16;103199.47;;;3.98;80.11
72110;BME280;59983;52.010;5.420;2023-04-03T04:46:43;103202.63;;;3.95;80.47
72110;BME280;59983;52.010;5.420;2023-04-03T04:49:09;103208.91;;;4.01;79.93
72110;BME280;59983;52.010;5.420;2023-04-03T04:51:36;103203.81;;;3.87;80.53
72110;BME280;59983;52.010;5.420;2023-04-03T04:54:17;103204.19;;;3.91;80.22
72110;BME280;59983;52.010;5.420;2023-04-03T04:56:43;103205.81;;;3.92;79.99
72110;BME280;59983;52.010;5.420;2023-04-03T04:59:10;103205.69;;;3.87;80.77
72110;BME280;59983;52.010;5.420;2023-04-03T05:01:36;103208.88;;;3.84;80.61
72110;BME280;59983;52.010;5.420;2023-04-03T05:04:03;103205.88;;;3.80;80.66
72110;BME280;59983;52.010;5.420;2023-04-03T05:06:30;103210.50;;;3.85;80.83
72110;BME280;59983;52.010;5.420;2023-04-03T05:08:58;103208.72;;;3.90;80.75
72110;BME280;59983;52.010;5.420;2023-04-03T05:11:25;103207.50;;;3.81;80.49
72110;BME280;59983;52.010;5.420;2023-04-03T05:13:52;103212.25;;;3.79;80.74
72110;BME280;59983;52.010;5.420;2023-04-03T05:16:18;103208.72;;;3.62;80.82
72110;BME280;59983;52.010;5.420;2023-04-03T05:18:45;103215.06;;;3.56;81.13
72110;BME280;59983;52.010;5.420;2023-04-03T05:21:11;103221.38;;;3.50;81.49
72110;BME280;59983;52.010;5.420;2023-04-03T05:23:38;103208.28;;;3.53;81.45
72110;BME280;59983;52.010;5.420;2023-04-03T05:26:04;103226.50;;;3.51;81.79
72110;BME280;59983;52.010;5.420;2023-04-03T05:28:32;103216.25;;;3.48;82.43
72110;BME280;59983;52.010;5.420;2023-04-03T05:30:58;103224.38;;;3.53;82.84
72110;BME280;59983;52.010;5.420;2023-04-03T05:33:26;103233.28;;;3.54;82.69
72110;BME280;59983;52.010;5.420;2023-04-03T05:35:54;103235.59;;;3.50;82.32
72110;BME280;59983;52.010;5.420;2023-04-03T05:38:20;103240.84;;;3.57;82.56
72110;BME280;59983;52.010;5.420;2023-04-03T05:40:47;103236.84;;;3.59;81.88
72110;BME280;59983;52.010;5.420;2023-04-03T05:43:14;103240.09;;;3.61;81.99
72110;BME280;59983;52.010;5.420;2023-04-03T05:45:40;103231.84;;;3.51;82.67
72110;BME280;59983;52.010;5.420;2023-04-03T05:48:07;103239.00;;;3.46;83.06
72110;BME280;59983;52.010;5.420;2023-04-03T05:50:33;103240.06;;;3.45;83.23
72110;BME280;59983;52.010;5.420;2023-04-03T05:53:01;103242.47;;;3.58;83.55
72110;BME280;59983;52.010;5.420;2023-04-03T05:55:28;103243.97;;;3.65;82.84
72110;BME280;59983;52.010;5.420;2023-04-03T05:57:55;103237.06;;;3.69;83.10
72110;BME280;59983;52.010;5.420;2023-04-03T06:00:21;103240.53;;;3.82;82.40
72110;BME280;59983;52.010;5.420;2023-04-03T06:02:48;103254.38;;;3.90;82.67
72110;BME280;59983;52.010;5.420;2023-04-03T06:05:15;103254.38;;;3.90;82.22
72110;BME280;59983;52.010;5.420;2023-04-03T06:07:42;103254.00;;;3.98;81.55
72110;BME280;59983;52.010;5.420;2023-04-03T06:10:11;103253.81;;;4.05;81.32
72110;BME280;59983;52.010;5.420;2023-04-03T06:12:38;103254.03;;;4.15;81.79
72110;BME280;59983;52.010;5.420;2023-04-03T06:15:05;103250.28;;;4.16;80.93
72110;BME280;59983;52.010;5.420;2023-04-03T06:17:34;103259.97;;;4.17;80.84
72110;BME280;59983;52.010;5.420;2023-04-03T06:20:00;103256.53;;;4.22;80.70
72110;BME280;59983;52.010;5.420;2023-04-03T06:22:27;103259.38;;;4.32;80.60
72110;BME280;59983;52.010;5.420;2023-04-03T06:24:57;103266.19;;;4.35;80.02
72110;BME280;59983;52.010;5.420;2023-04-03T06:27:23;103269.09;;;4.33;80.46
72110;BME280;59983;52.010;5.420;2023-04-03T06:29:50;103270.56;;;4.41;80.73
72110;BME280;59983;52.010;5.420;2023-04-03T06:32:16;103270.81;;;4.39;80.11
72110;BME280;59983;52.010;5.420;2023-04-03T06:34:43;103264.22;;;4.47;80.00
72110;BME280;59983;52.010;5.420;2023-04-03T06:37:21;103270.31;;;4.59;79.50
72110;BME280;59983;52.010;5.420;2023-04-03T06:39:48;103257.94;;;4.58;79.37
72110;BME280;59983;52.010;5.420;2023-04-03T06:42:15;103277.97;;;4.67;79.94
72110;BME280;59983;52.010;5.420;2023-04-03T06:44:42;103271.56;;;4.68;79.03
72110;BME280;59983;52.010;5.420;2023-04-03T06:47:13;103279.53;;;4.80;78.88
72110;BME280;59983;52.010;5.420;2023-04-03T06:49:40;103277.09;;;4.78;77.98
72110;BME280;59983;52.010;5.420;2023-04-03T06:52:08;103277.56;;;4.92;78.32
72110;BME280;59983;52.010;5.420;2023-04-03T06:54:34;103283.03;;;4.97;77.23
72110;BME280;59983;52.010;5.420;2023-04-03T06:57:01;103289.53;;;5.01;77.51
72110;BME280;59983;52.010;5.420;2023-04-03T06:59:28;103289.44;;;5.13;77.21
72110;BME280;59983;52.010;5.420;2023-04-03T07:01:54;103299.28;;;5.24;76.74
72110;BME280;59983;52.010;5.420;2023-04-03T07:04:21;103295.59;;;5.30;76.43
72110;BME280;59983;52.010;5.420;2023-04-03T07:06:48;103303.97;;;5.34;75.66
72110;BME280;59983;52.010;5.420;2023-04-03T07:09:14;103297.78;;;5.33;75.75
72110;BME280;59983;52.010;5.420;2023-04-03T07:11:41;103304.94;;;5.45;76.24
72110;BME280;59983;52.010;5.420;2023-04-03T07:14:07;103298.53;;;5.73;77.49
72110;BME280;59983;52.010;5.420;2023-04-03T07:16:35;103305.03;;;5.93;77.46
72110;BME280;59983;52.010;5.420;2023-04-03T07:19:02;103302.44;;;6.04;74.62
72110;BME280;59983;52.010;5.420;2023-04-03T07:21:29;103317.53;;;6.05;74.04
72110;BME280;59983;52.010;5.420;2023-04-03T07:23:56;103315.91;;;6.04;73.32
72110;BME280;59983;52.010;5.420;2023-04-03T07:26:22;103316.41;;;6.01;73.44
72110;BME280;59983;52.010;5.420;2023-04-03T07:28:49;103309.28;;;6.16;73.44
72110;BME280;59983;52.010;5.420;2023-04-03T07:31:17;103324.00;;;6.31;72.70
72110;BME280;59983;52.010;5.420;2023-04-03T07:33:44;103313.06;;;6.42;72.51
72110;BME280;59983;52.010;5.420;2023-04-03T07:36:17;103312.19;;;6.64;72.18
72110;BME280;59983;52.010;5.420;2023-04-03T07:38:44;103316.31;;;6.76;71.92
72110;BME280;59983;52.010;5.420;2023-04-03T07:41:14;103309.69;;;6.94;72.08
72110;BME280;59983;52.010;5.420;2023-04-03T07:43:41;103308.69;;;7.00;70.98
72110;BME280;59983;52.010;5.420;2023-04-03T07:46:08;103311.06;;;6.97;69.02
72110;BME280;59983;52.010;5.420;2023-04-03T07:48:35;103313.06;;;7.12;68.46
72110;BME280;59983;52.010;5.420;2023-04-03T07:51:03;103310.91;;;7.14;66.40
72110;BME280;59983;52.010;5.420;2023-04-03T07:53:31;103321.44;;;7.15;66.87
72110;BME280;59983;52.010;5.420;2023-04-03T07:55:58;103321.19;;;7.17;66.30
72110;BME280;59983;52.010;5.420;2023-04-03T07:58:25;103320.44;;;7.26;65.34
72110;BME280;59983;52.010;5.420;2023-04-03T08:00:53;103324.81;;;7.37;65.10
72110;BME280;59983;52.010;5.420;2023-04-03T08:03:19;103326.53;;;7.54;63.96
72110;BME280;59983;52.010;5.420;2023-04-03T08:05:48;103322.00;;;7.70;64.02
72110;BME280;59983;52.010;5.420;2023-04-03T08:08:17;103327.16;;;7.71;61.79
72110;BME280;59983;52.010;5.420;2023-04-03T08:10:53;103324.47;;;7.81;60.25
72110;BME280;59983;52.010;5.420;2023-04-03T08:13:21;103326.34;;;7.76;60.62
72110;BME280;59983;52.010;5.420;2023-04-03T08:15:48;103323.97;;;7.94;60.73
72110;BME280;59983;52.010;5.420;2023-04-03T08:18:15;103324.03;;;8.15;60.24
72110;BME280;59983;52.010;5.420;2023-04-03T08:20:42;103322.44;;;8.24;59.93
72110;BME280;59983;52.010;5.420;2023-04-03T08:23:09;103331.69;;;8.43;59.47
72110;BME280;59983;52.010;5.420;2023-04-03T08:25:40;103331.16;;;8.51;58.58
72110;BME280;59983;52.010;5.420;2023-04-03T08:28:08;103329.56;;;8.66;57.81
72110;BME280;59983;52.010;5.420;2023-04-03T08:30:35;103329.78;;;8.74;57.02
72110;BME280;59983;52.010;5.420;2023-04-03T08:33:02;103332.78;;;8.78;55.10
72110;BME280;59983;52.010;5.420;2023-04-03T08:35:29;103331.69;;;8.74;53.31
72110;BME280;59983;52.010;5.420;2023-04-03T08:37:56;103337.13;;;8.79;53.98
72110;BME280;59983;52.010;5.420;2023-04-03T08:40:23;103354.44;;;9.03;53.97
72110;BME280;59983;52.010;5.420;2023-04-03T08:45:43;103346.78;;;9.36;53.01
72110;BME280;59983;52.010;5.420;2023-04-03T08:48:27;103357.84;;;9.45;51.69
72110;BME280;59983;52.010;5.420;2023-04-03T08:50:58;103351.59;;;9.59;50.40
72110;BME280;59983;52.010;5.420;2023-04-03T08:53:32;103355.06;;;9.70;47.82
72110;BME280;59983;52.010;5.420;2023-04-03T08:56:05;103351.81;;;9.73;47.05
72110;BME280;59983;52.010;5.420;2023-04-03T08:59:04;103357.19;;;9.83;47.61
72110;BME280;59983;52.010;5.420;2023-04-03T09:01:36;103357.38;;;10.02;46.51
72110;BME280;59983;52.010;5.420;2023-04-03T09:04:10;103348.34;;;10.17;45.02
72110;BME280;59983;52.010;5.420;2023-04-03T09:06:38;103345.88;;;10.20;44.70
72110;BME280;59983;52.010;5.420;2023-04-03T09:09:35;103337.16;;;10.34;45.34
72110;BME280;59983;52.010;5.420;2023-04-03T09:12:24;103348.69;;;10.49;45.09
72110;BME280;59983;52.010;5.420;2023-04-03T09:15:17;103346.84;;;10.45;43.29
72110;BME280;59983;52.010;5.420;2023-04-03T09:18:21;103341.88;;;10.57;42.10
72110;BME280;59983;52.010;5.420;2023-04-03T09:23:44;103334.50;;;10.92;41.37
72110;BME280;59983;52.010;5.420;2023-04-03T09:26:19;103329.97;;;10.87;40.25
72110;BME280;59983;52.010;5.420;2023-04-03T09:28:47;103341.63;;;10.88;39.64
72110;BME280;59983;52.010;5.420;2023-04-03T09:31:25;103342.03;;;11.00;38.85
72110;BME280;59983;52.010;5.420;2023-04-03T09:33:56;103335.63;;;10.91;41.18
72110;BME280;59983;52.010;5.420;2023-04-03T09:36:42;103332.22;;;11.04;40.53
72110;BME280;59983;52.010;5.420;2023-04-03T09:39:18;103333.78;;;11.10;41.16
72110;BME280;59983;52.010;5.420;2023-04-03T09:42:05;103330.59;;;11.03;39.19
72110;BME280;59983;52.010;5.420;2023-04-03T09:44:35;103323.88;;;10.95;39.57
72110;BME280;59983;52.010;5.420;2023-04-03T09:47:33;103322.53;;;11.22;39.38
72110;BME280;59983;52.010;5.420;2023-04-03T09:52:41;103311.50;;;11.37;37.42
72110;BME280;59983;52.010;5.420;2023-04-03T09:55:17;103317.09;;;11.46;35.48
72110;BME280;59983;52.010;5.420;2023-04-03T09:57:45;103316.75;;;11.28;34.75
72110;BME280;59983;52.010;5.420;2023-04-03T10:00:35;103313.00;;;11.24;35.00
72110;BME280;59983;52.010;5.420;2023-04-03T10:03:03;103306.22;;;11.22;33.02
72110;BME280;59983;52.010;5.420;2023-04-03T10:05:39;103313.22;;;11.28;33.43
72110;BME280;59983;52.010;5.420;2023-04-03T10:10:43;103297.34;;;11.16;34.04
72110;BME280;59983;52.010;5.420;2023-04-03T10:13:18;103302.00;;;11.11;34.81
72110;BME280;59983;52.010;5.420;2023-04-03T10:15:56;103295.84;;;11.29;32.33
72110;BME280;59983;52.010;5.420;2023-04-03T10:18:50;103276.88;;;11.24;33.72
72110;BME280;59983;52.010;5.420;2023-04-03T10:21:46;103281.31;;;11.39;34.33
72110;BME280;59983;52.010;5.420;2023-04-03T10:24:29;103277.81;;;11.57;34.83
72110;BME280;59983;52.010;5.420;2023-04-03T10:27:15;103291.09;;;11.40;34.29
72110;BME280;59983;52.010;5.420;2023-04-03T10:30:20;103278.50;;;11.49;33.39
72110;BME280;59983;52.010;5.420;2023-04-03T10:36:25;103272.09;;;11.40;32.00
72110;BME280;59983;52.010;5.420;2023-04-03T10:44:42;103260.59;;;11.24;30.73
72110;BME280;59983;52.010;5.420;2023-04-03T10:50:27;103240.38;;;11.30;31.67
72110;BME280;59983;52.010;5.420;2023-04-03T11:01:48;103239.38;;;11.26;31.60
72110;BME280;59983;52.010;5.420;2023-04-03T11:04:17;103240.75;;;11.23;32.77
72110;BME280;59983;52.010;5.420;2023-04-03T11:06:50;103247.09;;;11.38;32.82
72110;BME280;59983;52.010;5.420;2023-04-03T11:09:19;103240.84;;;11.37;34.27
72110;BME280;59983;52.010;5.420;2023-04-03T11:11:49;103250.84;;;11.42;35.12
72110;BME280;59983;52.010;5.420;2023-04-03T11:20:04;103243.22;;;11.44;33.74
72110;BME280;59983;52.010;5.420;2023-04-03T11:22:40;103239.22;;;11.36;32.62
72110;BME280;59983;52.010;5.420;2023-04-03T11:27:49;103234.84;;;11.40;35.15
72110;BME280;59983;52.010;5.420;2023-04-03T11:30:24;103228.81;;;11.43;36.48
72110;BME280;59983;52.010;5.420;2023-04-03T11:35:21;103229.63;;;11.44;33.76
72110;BME280;59983;52.010;5.420;2023-04-03T11:37:50;103232.84;;;11.46;36.04
72110;BME280;59983;52.010;5.420;2023-04-03T11:40:26;103238.13;;;11.37;36.37
72110;BME280;59983;52.010;5.420;2023-04-03T11:45:31;103219.22;;;11.70;36.65
72110;BME280;59983;52.010;5.420;2023-04-03T11:50:48;103222.63;;;11.80;36.44
72110;BME280;59983;52.010;5.420;2023-04-03T11:58:31;103226.41;;;12.17;36.47
72110;BME280;59983;52.010;5.420;2023-04-03T12:08:52;103210.31;;;12.21;33.96
72110;BME280;59983;52.010;5.420;2023-04-03T12:11:30;103203.09;;;12.30;34.58
72110;BME280;59983;52.010;5.420;2023-04-03T12:38:25;103166.28;;;13.42;34.26
72110;BME280;59983;52.010;5.420;2023-04-03T12:41:30;103159.25;;;13.64;33.05
72110;BME280;59983;52.010;5.420;2023-04-03T12:46:53;103159.31;;;13.95;32.63
72110;BME280;59983;52.010;5.420;2023-04-03T12:51:56;103152.63;;;13.78;32.14
72110;BME280;59983;52.010;5.420;2023-04-03T12:54:27;103134.91;;;13.89;32.19
72110;BME280;59983;52.010;5.420;2023-04-03T12:59:42;103138.44;;;14.21;32.72
72110;BME280;59983;52.010;5.420;2023-04-03T13:02:30;103139.41;;;14.48;33.59
72110;BME280;59983;52.010;5.420;2023-04-03T13:05:06;103133.56;;;14.80;34.38
72110;BME280;59983;52.010;5.420;2023-04-03T13:07:36;103131.69;;;14.98;31.92
72110;BME280;59983;52.010;5.420;2023-04-03T13:12:35;103120.09;;;15.01;31.31
72110;BME280;59983;52.010;5.420;2023-04-03T13:15:18;103107.41;;;14.96;32.46
72110;BME280;59983;52.010;5.420;2023-04-03T13:17:45;103101.31;;;14.99;31.56
72110;BME280;59983;52.010;5.420;2023-04-03T13:20:32;103117.88;;;14.94;31.00
72110;BME280;59983;52.010;5.420;2023-04-03T13:23:06;103111.75;;;14.97;31.44
72110;BME280;59983;52.010;5.420;2023-04-03T13:25:37;103119.00;;;15.19;31.02
72110;BME280;59983;52.010;5.420;2023-04-03T13:28:07;103113.53;;;15.19;33.53
72110;BME280;59983;52.010;5.420;2023-04-03T13:30:41;103101.81;;;15.27;30.77
72110;BME280;59983;52.010;5.420;2023-04-03T13:33:23;103110.34;;;15.52;30.09
72110;BME280;59983;52.010;5.420;2023-04-03T13:36:02;103114.19;;;15.59;31.44
72110;BME280;59983;52.010;5.420;2023-04-03T13:38:30;103112.28;;;15.43;30.38
72110;BME280;59983;52.010;5.420;2023-04-03T13:41:20;103105.50;;;15.49;31.80
72110;BME280;59983;52.010;5.420;2023-04-03T13:43:48;103096.97;;;15.76;31.41
72110;BME280;59983;52.010;5.420;2023-04-03T13:48:46;103102.28;;;16.37;29.53
72110;BME280;59983;52.010;5.420;2023-04-03T13:56:37;103097.00;;;16.91;30.33
72110;BME280;59983;52.010;5.420;2023-04-03T14:02:16;103104.22;;;16.95;29.97
72110;BME280;59983;52.010;5.420;2023-04-03T14:07:15;103091.72;;;17.27;29.45
72110;BME280;59983;52.010;5.420;2023-04-03T14:09:43;103093.63;;;17.48;29.16
72110;BME280;59983;52.010;5.420;2023-04-03T14:12:30;103084.75;;;17.30;30.15
72110;BME280;59983;52.010;5.420;2023-04-03T14:15:00;103086.63;;;16.76;28.48
72110;BME280;59983;52.010;5.420;2023-04-03T14:17:28;103079.34;;;16.80;30.53
72110;BME280;59983;52.010;5.420;2023-04-03T14:19:56;103079.53;;;16.95;30.15
72110;BME280;59983;52.010;5.420;2023-04-03T14:22:29;103076.78;;;16.75;28.50
72110;BME280;59983;52.010;5.420;2023-04-03T14:24:56;103070.88;;;16.64;30.03
72110;BME280;59983;52.010;5.420;2023-04-03T14:27:33;103085.78;;;16.46;29.32
72110;BME280;59983;52.010;5.420;2023-04-03T14:30:00;103065.75;;;16.24;28.54
72110;BME280;59983;52.010;5.420;2023-04-03T14:32:29;103062.06;;;16.20;28.68
72110;BME280;59983;52.010;5.420;2023-04-03T14:34:56;103061.53;;;16.35;29.40
72110;BME280;59983;52.010;5.420;2023-04-03T14:37:26;103059.72;;;16.69;30.09
72110;BME280;59983;52.010;5.420;2023-04-03T14:39:55;103063.19;;;17.08;30.13
72110;BME280;59983;52.010;5.420;2023-04-03T14:42:31;103058.16;;;16.89;28.63
72110;BME280;59983;52.010;5.420;2023-04-03T14:45:00;103051.25;;;16.24;29.46
72110;BME280;59983;52.010;5.420;2023-04-03T14:47:29;103051.50;;;16.01;29.93
72110;BME280;59983;52.010;5.420;2023-04-03T14:50:00;103050.22;;;15.99;30.30
72110;BME280;59983;52.010;5.420;2023-04-03T14:52:30;103039.03;;;16.21;29.47
72110;BME280;59983;52.010;5.420;2023-04-03T14:54:58;103053.41;;;16.09;30.68
72110;BME280;59983;52.010;5.420;2023-04-03T14:57:27;103056.50;;;16.08;33.71
72110;BME280;59983;52.010;5.420;2023-04-03T14:59:54;103053.00;;;16.28;30.91
72110;BME280;59983;52.010;5.420;2023-04-03T15:02:29;103056.03;;;16.35;29.92
72110;BME280;59983;52.010;5.420;2023-04-03T15:04:58;103052.72;;;16.51;31.51
72110;BME280;59983;52.010;5.420;2023-04-03T15:07:27;103053.28;;;16.65;29.83
72110;BME280;59983;52.010;5.420;2023-04-03T15:09:54;103044.13;;;16.31;29.04